<?xml version="1.0" encoding="UTF-8" standalone="no" ?><gpx xmlns="http://www.topografix.com/GPX/1/1" xmlns:gpxx="http://www.garmin.com/xmlschemas/GpxExtensions/v3" xmlns:wptx1="http://www.garmin.com/xmlschemas/WaypointExtension/v1" xmlns:gpxtpx="http://www.garmin.com/xmlschemas/TrackPointExtension/v1" creator="GuideVTT.com" version="1.1" xmlns:xsi="http://www.w3.org/2001/XMLSchema-instance" xsi:schemaLocation="http://www.topografix.com/GPX/1/1 http://www.topografix.com/GPX/1/1/gpx.xsd http://www.garmin.com/xmlschemas/GpxExtensions/v3 http://www8.garmin.com/xmlschemas/GpxExtensionsv3.xsd http://www.garmin.com/xmlschemas/WaypointExtension/v1 http://www8.garmin.com/xmlschemas/WaypointExtensionv1.xsd http://www.garmin.com/xmlschemas/TrackPointExtension/v1 http://www.garmin.com/xmlschemas/TrackPointExtensionv1.xsd">
<metadata><link href="http://www.garmin.com"><text>Garmin International</text></link><time>2013-06-22T15:13:50Z</time></metadata>
<trk><name>28sept07.gpx</name><extensions><gpxx:TrackExtension><gpxx:DisplayColor>Cyan</gpxx:DisplayColor></gpxx:TrackExtension></extensions><trkseg>
<trkpt lat="43.08568300" lon="0.28211700"><ele></ele><time>2014-4-21T16:22:21Z</time></trkpt>
<trkpt lat="43.08603300" lon="0.28138300"><ele></ele><time>2014-4-21T16:22:24Z</time></trkpt>
<trkpt lat="43.08630000" lon="0.28098300"><ele></ele><time>2014-4-21T16:22:27Z</time></trkpt>
<trkpt lat="43.08760000" lon="0.28008300"><ele></ele><time>2014-4-21T16:22:30Z</time></trkpt>
<trkpt lat="43.08870000" lon="0.27963300"><ele></ele><time>2014-4-21T16:22:33Z</time></trkpt>
<trkpt lat="43.08931700" lon="0.27910000"><ele></ele><time>2014-4-21T16:22:36Z</time></trkpt>
<trkpt lat="43.08936700" lon="0.27928300"><ele></ele><time>2014-4-21T16:22:39Z</time></trkpt>
<trkpt lat="43.08945000" lon="0.27951700"><ele></ele><time>2014-4-21T16:22:42Z</time></trkpt>
<trkpt lat="43.08956700" lon="0.27968300"><ele></ele><time>2014-4-21T16:22:45Z</time></trkpt>
<trkpt lat="43.08976700" lon="0.28001700"><ele></ele><time>2014-4-21T16:22:48Z</time></trkpt>
<trkpt lat="43.08995000" lon="0.28015000"><ele></ele><time>2014-4-21T16:22:51Z</time></trkpt>
<trkpt lat="43.09025000" lon="0.28031700"><ele></ele><time>2014-4-21T16:22:54Z</time></trkpt>
<trkpt lat="43.09088300" lon="0.28055000"><ele></ele><time>2014-4-21T16:22:57Z</time></trkpt>
<trkpt lat="43.09125000" lon="0.28070000"><ele></ele><time>2014-4-21T16:23:0Z</time></trkpt>
<trkpt lat="43.09221700" lon="0.28101700"><ele></ele><time>2014-4-21T16:23:3Z</time></trkpt>
<trkpt lat="43.09215000" lon="0.28090000"><ele></ele><time>2014-4-21T16:23:6Z</time></trkpt>
<trkpt lat="43.09198300" lon="0.28080000"><ele></ele><time>2014-4-21T16:23:9Z</time></trkpt>
<trkpt lat="43.09176700" lon="0.28070000"><ele></ele><time>2014-4-21T16:23:12Z</time></trkpt>
<trkpt lat="43.09168300" lon="0.28053300"><ele></ele><time>2014-4-21T16:23:15Z</time></trkpt>
<trkpt lat="43.09158300" lon="0.28028300"><ele></ele><time>2014-4-21T16:23:18Z</time></trkpt>
<trkpt lat="43.09136700" lon="0.28021700"><ele></ele><time>2014-4-21T16:23:21Z</time></trkpt>
<trkpt lat="43.09123300" lon="0.28008300"><ele></ele><time>2014-4-21T16:23:24Z</time></trkpt>
<trkpt lat="43.09115000" lon="0.27985000"><ele></ele><time>2014-4-21T16:23:27Z</time></trkpt>
<trkpt lat="43.09116700" lon="0.27963300"><ele></ele><time>2014-4-21T16:23:30Z</time></trkpt>
<trkpt lat="43.09130000" lon="0.27938300"><ele></ele><time>2014-4-21T16:23:33Z</time></trkpt>
<trkpt lat="43.09141700" lon="0.27926700"><ele></ele><time>2014-4-21T16:23:36Z</time></trkpt>
<trkpt lat="43.09160000" lon="0.27916700"><ele></ele><time>2014-4-21T16:23:39Z</time></trkpt>
<trkpt lat="43.09176700" lon="0.27905000"><ele></ele><time>2014-4-21T16:23:42Z</time></trkpt>
<trkpt lat="43.09195000" lon="0.27915000"><ele></ele><time>2014-4-21T16:23:45Z</time></trkpt>
<trkpt lat="43.09203300" lon="0.27955000"><ele></ele><time>2014-4-21T16:23:48Z</time></trkpt>
<trkpt lat="43.09225000" lon="0.27968300"><ele></ele><time>2014-4-21T16:23:51Z</time></trkpt>
<trkpt lat="43.09251700" lon="0.27968300"><ele></ele><time>2014-4-21T16:23:54Z</time></trkpt>
<trkpt lat="43.09275000" lon="0.27968300"><ele></ele><time>2014-4-21T16:23:57Z</time></trkpt>
<trkpt lat="43.09293300" lon="0.27961700"><ele></ele><time>2014-4-21T16:24:0Z</time></trkpt>
<trkpt lat="43.09323300" lon="0.27940000"><ele></ele><time>2014-4-21T16:24:3Z</time></trkpt>
<trkpt lat="43.09338300" lon="0.27920000"><ele></ele><time>2014-4-21T16:24:6Z</time></trkpt>
<trkpt lat="43.09373300" lon="0.27921700"><ele></ele><time>2014-4-21T16:24:9Z</time></trkpt>
<trkpt lat="43.09395000" lon="0.27931700"><ele></ele><time>2014-4-21T16:24:12Z</time></trkpt>
<trkpt lat="43.09420000" lon="0.27940000"><ele></ele><time>2014-4-21T16:24:15Z</time></trkpt>
<trkpt lat="43.09441700" lon="0.27943300"><ele></ele><time>2014-4-21T16:24:18Z</time></trkpt>
<trkpt lat="43.09475000" lon="0.27956700"><ele></ele><time>2014-4-21T16:24:21Z</time></trkpt>
<trkpt lat="43.09475000" lon="0.27933300"><ele></ele><time>2014-4-21T16:24:24Z</time></trkpt>
<trkpt lat="43.09475000" lon="0.27915000"><ele></ele><time>2014-4-21T16:24:27Z</time></trkpt>
<trkpt lat="43.09475000" lon="0.27886700"><ele></ele><time>2014-4-21T16:24:30Z</time></trkpt>
<trkpt lat="43.09476700" lon="0.27846700"><ele></ele><time>2014-4-21T16:24:33Z</time></trkpt>
<trkpt lat="43.09471700" lon="0.27803300"><ele></ele><time>2014-4-21T16:24:36Z</time></trkpt>
<trkpt lat="43.09448300" lon="0.27745000"><ele></ele><time>2014-4-21T16:24:39Z</time></trkpt>
<trkpt lat="43.09436700" lon="0.27678300"><ele></ele><time>2014-4-21T16:24:42Z</time></trkpt>
<trkpt lat="43.09433300" lon="0.27645000"><ele></ele><time>2014-4-21T16:24:45Z</time></trkpt>
<trkpt lat="43.09460000" lon="0.27450000"><ele></ele><time>2014-4-21T16:24:48Z</time></trkpt>
<trkpt lat="43.09501700" lon="0.27336700"><ele></ele><time>2014-4-21T16:24:51Z</time></trkpt>
<trkpt lat="43.09516700" lon="0.27260000"><ele></ele><time>2014-4-21T16:24:54Z</time></trkpt>
<trkpt lat="43.09525000" lon="0.27176700"><ele></ele><time>2014-4-21T16:24:57Z</time></trkpt>
<trkpt lat="43.09521700" lon="0.27136700"><ele></ele><time>2014-4-21T16:25:0Z</time></trkpt>
<trkpt lat="43.09528300" lon="0.27101700"><ele></ele><time>2014-4-21T16:25:3Z</time></trkpt>
<trkpt lat="43.09516700" lon="0.27068300"><ele></ele><time>2014-4-21T16:25:6Z</time></trkpt>
<trkpt lat="43.09543300" lon="0.26968300"><ele></ele><time>2014-4-21T16:25:9Z</time></trkpt>
<trkpt lat="43.09543300" lon="0.26920000"><ele></ele><time>2014-4-21T16:25:12Z</time></trkpt>
<trkpt lat="43.09548300" lon="0.26805000"><ele></ele><time>2014-4-21T16:25:15Z</time></trkpt>
<trkpt lat="43.09545000" lon="0.26758300"><ele></ele><time>2014-4-21T16:25:18Z</time></trkpt>
<trkpt lat="43.09541700" lon="0.26718300"><ele></ele><time>2014-4-21T16:25:21Z</time></trkpt>
<trkpt lat="43.09538300" lon="0.26675000"><ele></ele><time>2014-4-21T16:25:24Z</time></trkpt>
<trkpt lat="43.09541700" lon="0.26625000"><ele></ele><time>2014-4-21T16:25:27Z</time></trkpt>
<trkpt lat="43.09571700" lon="0.26565000"><ele></ele><time>2014-4-21T16:25:30Z</time></trkpt>
<trkpt lat="43.09515000" lon="0.26490000"><ele></ele><time>2014-4-21T16:25:33Z</time></trkpt>
<trkpt lat="43.09448300" lon="0.26505000"><ele></ele><time>2014-4-21T16:25:36Z</time></trkpt>
<trkpt lat="43.09408300" lon="0.26548300"><ele></ele><time>2014-4-21T16:25:39Z</time></trkpt>
<trkpt lat="43.09398300" lon="0.26595000"><ele></ele><time>2014-4-21T16:25:42Z</time></trkpt>
<trkpt lat="43.09393300" lon="0.26621700"><ele></ele><time>2014-4-21T16:25:45Z</time></trkpt>
<trkpt lat="43.09378300" lon="0.26581700"><ele></ele><time>2014-4-21T16:25:48Z</time></trkpt>
<trkpt lat="43.09408300" lon="0.26486700"><ele></ele><time>2014-4-21T16:25:51Z</time></trkpt>
<trkpt lat="43.09443300" lon="0.26453300"><ele></ele><time>2014-4-21T16:25:54Z</time></trkpt>
<trkpt lat="43.09485000" lon="0.26416700"><ele></ele><time>2014-4-21T16:25:57Z</time></trkpt>
<trkpt lat="43.09553300" lon="0.26395000"><ele></ele><time>2014-4-21T16:26:0Z</time></trkpt>
<trkpt lat="43.09621700" lon="0.26416700"><ele></ele><time>2014-4-21T16:26:3Z</time></trkpt>
<trkpt lat="43.09653300" lon="0.26435000"><ele></ele><time>2014-4-21T16:26:6Z</time></trkpt>
<trkpt lat="43.09718300" lon="0.26475000"><ele></ele><time>2014-4-21T16:26:9Z</time></trkpt>
<trkpt lat="43.09745000" lon="0.26486700"><ele></ele><time>2014-4-21T16:26:12Z</time></trkpt>
<trkpt lat="43.09765000" lon="0.26493300"><ele></ele><time>2014-4-21T16:26:15Z</time></trkpt>
<trkpt lat="43.09786700" lon="0.26535000"><ele></ele><time>2014-4-21T16:26:18Z</time></trkpt>
<trkpt lat="43.09810000" lon="0.26561700"><ele></ele><time>2014-4-21T16:26:21Z</time></trkpt>
<trkpt lat="43.09841700" lon="0.26601700"><ele></ele><time>2014-4-21T16:26:24Z</time></trkpt>
<trkpt lat="43.09840000" lon="0.26628300"><ele></ele><time>2014-4-21T16:26:27Z</time></trkpt>
<trkpt lat="43.09866700" lon="0.26638300"><ele></ele><time>2014-4-21T16:26:30Z</time></trkpt>
<trkpt lat="43.09890000" lon="0.26646700"><ele></ele><time>2014-4-21T16:26:33Z</time></trkpt>
<trkpt lat="43.09915000" lon="0.26718300"><ele></ele><time>2014-4-21T16:26:36Z</time></trkpt>
<trkpt lat="43.09928300" lon="0.26740000"><ele></ele><time>2014-4-21T16:26:39Z</time></trkpt>
<trkpt lat="43.09945000" lon="0.26773300"><ele></ele><time>2014-4-21T16:26:42Z</time></trkpt>
<trkpt lat="43.09970000" lon="0.26811700"><ele></ele><time>2014-4-21T16:26:45Z</time></trkpt>
<trkpt lat="43.09985000" lon="0.26856700"><ele></ele><time>2014-4-21T16:26:48Z</time></trkpt>
<trkpt lat="43.09981700" lon="0.26888300"><ele></ele><time>2014-4-21T16:26:51Z</time></trkpt>
<trkpt lat="43.09971700" lon="0.26908300"><ele></ele><time>2014-4-21T16:26:54Z</time></trkpt>
<trkpt lat="43.09980000" lon="0.26943300"><ele></ele><time>2014-4-21T16:26:57Z</time></trkpt>
<trkpt lat="43.10000000" lon="0.26988300"><ele></ele><time>2014-4-21T16:27:0Z</time></trkpt>
<trkpt lat="43.09995000" lon="0.27030000"><ele></ele><time>2014-4-21T16:27:3Z</time></trkpt>
<trkpt lat="43.09973300" lon="0.27073300"><ele></ele><time>2014-4-21T16:27:6Z</time></trkpt>
<trkpt lat="43.09990000" lon="0.27100000"><ele></ele><time>2014-4-21T16:27:9Z</time></trkpt>
<trkpt lat="43.10001700" lon="0.27153300"><ele></ele><time>2014-4-21T16:27:12Z</time></trkpt>
<trkpt lat="43.10016700" lon="0.27191700"><ele></ele><time>2014-4-21T16:27:15Z</time></trkpt>
<trkpt lat="43.10018300" lon="0.27236700"><ele></ele><time>2014-4-21T16:27:18Z</time></trkpt>
<trkpt lat="43.10030000" lon="0.27261700"><ele></ele><time>2014-4-21T16:27:21Z</time></trkpt>
<trkpt lat="43.10050000" lon="0.27301700"><ele></ele><time>2014-4-21T16:27:24Z</time></trkpt>
<trkpt lat="43.10080000" lon="0.27340000"><ele></ele><time>2014-4-21T16:27:27Z</time></trkpt>
<trkpt lat="43.10086700" lon="0.27363300"><ele></ele><time>2014-4-21T16:27:30Z</time></trkpt>
<trkpt lat="43.10063300" lon="0.27376700"><ele></ele><time>2014-4-21T16:27:33Z</time></trkpt>
<trkpt lat="43.10058300" lon="0.27398300"><ele></ele><time>2014-4-21T16:27:36Z</time></trkpt>
<trkpt lat="43.10111700" lon="0.27433300"><ele></ele><time>2014-4-21T16:27:39Z</time></trkpt>
<trkpt lat="43.10243300" lon="0.27351700"><ele></ele><time>2014-4-21T16:27:42Z</time></trkpt>
<trkpt lat="43.10235000" lon="0.27288300"><ele></ele><time>2014-4-21T16:27:45Z</time></trkpt>
<trkpt lat="43.10270000" lon="0.27200000"><ele></ele><time>2014-4-21T16:27:48Z</time></trkpt>
<trkpt lat="43.10298300" lon="0.27166700"><ele></ele><time>2014-4-21T16:27:51Z</time></trkpt>
<trkpt lat="43.10345000" lon="0.27125000"><ele></ele><time>2014-4-21T16:27:54Z</time></trkpt>
<trkpt lat="43.10338300" lon="0.27040000"><ele></ele><time>2014-4-21T16:27:57Z</time></trkpt>
<trkpt lat="43.10336700" lon="0.26998300"><ele></ele><time>2014-4-21T16:28:0Z</time></trkpt>
<trkpt lat="43.10330000" lon="0.26968300"><ele></ele><time>2014-4-21T16:28:3Z</time></trkpt>
<trkpt lat="43.10350000" lon="0.26943300"><ele></ele><time>2014-4-21T16:28:6Z</time></trkpt>
<trkpt lat="43.10331700" lon="0.26883300"><ele></ele><time>2014-4-21T16:28:9Z</time></trkpt>
<trkpt lat="43.10323300" lon="0.26848300"><ele></ele><time>2014-4-21T16:28:12Z</time></trkpt>
<trkpt lat="43.10306700" lon="0.26795000"><ele></ele><time>2014-4-21T16:28:15Z</time></trkpt>
<trkpt lat="43.10290000" lon="0.26735000"><ele></ele><time>2014-4-21T16:28:18Z</time></trkpt>
<trkpt lat="43.10276700" lon="0.26688300"><ele></ele><time>2014-4-21T16:28:21Z</time></trkpt>
<trkpt lat="43.10293300" lon="0.26658300"><ele></ele><time>2014-4-21T16:28:24Z</time></trkpt>
<trkpt lat="43.10315000" lon="0.26633300"><ele></ele><time>2014-4-21T16:28:27Z</time></trkpt>
<trkpt lat="43.10338300" lon="0.26611700"><ele></ele><time>2014-4-21T16:28:30Z</time></trkpt>
<trkpt lat="43.10350000" lon="0.26583300"><ele></ele><time>2014-4-21T16:28:33Z</time></trkpt>
<trkpt lat="43.10380000" lon="0.26425000"><ele></ele><time>2014-4-21T16:28:36Z</time></trkpt>
<trkpt lat="43.10406700" lon="0.26381700"><ele></ele><time>2014-4-21T16:28:39Z</time></trkpt>
<trkpt lat="43.10395000" lon="0.26365000"><ele></ele><time>2014-4-21T16:28:42Z</time></trkpt>
<trkpt lat="43.10400000" lon="0.26338300"><ele></ele><time>2014-4-21T16:28:45Z</time></trkpt>
<trkpt lat="43.10416700" lon="0.26298300"><ele></ele><time>2014-4-21T16:28:48Z</time></trkpt>
<trkpt lat="43.10423300" lon="0.26273300"><ele></ele><time>2014-4-21T16:28:51Z</time></trkpt>
<trkpt lat="43.10431700" lon="0.26230000"><ele></ele><time>2014-4-21T16:28:54Z</time></trkpt>
<trkpt lat="43.10456700" lon="0.26203300"><ele></ele><time>2014-4-21T16:28:57Z</time></trkpt>
<trkpt lat="43.10468300" lon="0.26190000"><ele></ele><time>2014-4-21T16:29:0Z</time></trkpt>
<trkpt lat="43.10478300" lon="0.26158300"><ele></ele><time>2014-4-21T16:29:3Z</time></trkpt>
<trkpt lat="43.10506700" lon="0.26140000"><ele></ele><time>2014-4-21T16:29:6Z</time></trkpt>
<trkpt lat="43.10533300" lon="0.26116700"><ele></ele><time>2014-4-21T16:29:9Z</time></trkpt>
<trkpt lat="43.10551700" lon="0.26093300"><ele></ele><time>2014-4-21T16:29:12Z</time></trkpt>
<trkpt lat="43.10573300" lon="0.26048300"><ele></ele><time>2014-4-21T16:29:15Z</time></trkpt>
<trkpt lat="43.10613300" lon="0.26003300"><ele></ele><time>2014-4-21T16:29:18Z</time></trkpt>
<trkpt lat="43.10650000" lon="0.25978300"><ele></ele><time>2014-4-21T16:29:21Z</time></trkpt>
<trkpt lat="43.10678300" lon="0.25945000"><ele></ele><time>2014-4-21T16:29:24Z</time></trkpt>
<trkpt lat="43.10691700" lon="0.25928300"><ele></ele><time>2014-4-21T16:29:27Z</time></trkpt>
<trkpt lat="43.10703300" lon="0.25911700"><ele></ele><time>2014-4-21T16:29:30Z</time></trkpt>
<trkpt lat="43.10736700" lon="0.25896700"><ele></ele><time>2014-4-21T16:29:33Z</time></trkpt>
<trkpt lat="43.10790000" lon="0.25865000"><ele></ele><time>2014-4-21T16:29:36Z</time></trkpt>
<trkpt lat="43.10831700" lon="0.25838300"><ele></ele><time>2014-4-21T16:29:39Z</time></trkpt>
<trkpt lat="43.10871700" lon="0.25825000"><ele></ele><time>2014-4-21T16:29:42Z</time></trkpt>
<trkpt lat="43.10901700" lon="0.25815000"><ele></ele><time>2014-4-21T16:29:45Z</time></trkpt>
<trkpt lat="43.10915000" lon="0.25796700"><ele></ele><time>2014-4-21T16:29:48Z</time></trkpt>
<trkpt lat="43.10938300" lon="0.25801700"><ele></ele><time>2014-4-21T16:29:51Z</time></trkpt>
<trkpt lat="43.10951700" lon="0.25833300"><ele></ele><time>2014-4-21T16:29:54Z</time></trkpt>
<trkpt lat="43.10958300" lon="0.25885000"><ele></ele><time>2014-4-21T16:29:57Z</time></trkpt>
<trkpt lat="43.10970000" lon="0.25938300"><ele></ele><time>2014-4-21T16:30:0Z</time></trkpt>
<trkpt lat="43.10988300" lon="0.26205000"><ele></ele><time>2014-4-21T16:30:3Z</time></trkpt>
<trkpt lat="43.10990000" lon="0.26235000"><ele></ele><time>2014-4-21T16:30:6Z</time></trkpt>
<trkpt lat="43.10991700" lon="0.26271700"><ele></ele><time>2014-4-21T16:30:9Z</time></trkpt>
<trkpt lat="43.10993300" lon="0.26303300"><ele></ele><time>2014-4-21T16:30:12Z</time></trkpt>
<trkpt lat="43.10996700" lon="0.26333300"><ele></ele><time>2014-4-21T16:30:15Z</time></trkpt>
<trkpt lat="43.10881700" lon="0.26393300"><ele></ele><time>2014-4-21T16:30:18Z</time></trkpt>
<trkpt lat="43.10741700" lon="0.26410000"><ele></ele><time>2014-4-21T16:30:21Z</time></trkpt>
<trkpt lat="43.10646700" lon="0.26466700"><ele></ele><time>2014-4-21T16:30:24Z</time></trkpt>
<trkpt lat="43.10551700" lon="0.26826700"><ele></ele><time>2014-4-21T16:30:27Z</time></trkpt>
<trkpt lat="43.10586700" lon="0.26843300"><ele></ele><time>2014-4-21T16:30:30Z</time></trkpt>
<trkpt lat="43.10621700" lon="0.26875000"><ele></ele><time>2014-4-21T16:30:33Z</time></trkpt>
<trkpt lat="43.10721700" lon="0.27186700"><ele></ele><time>2014-4-21T16:30:36Z</time></trkpt>
<trkpt lat="43.10710000" lon="0.27378300"><ele></ele><time>2014-4-21T16:30:39Z</time></trkpt>
<trkpt lat="43.10700000" lon="0.27411700"><ele></ele><time>2014-4-21T16:30:42Z</time></trkpt>
<trkpt lat="43.10800000" lon="0.27491700"><ele></ele><time>2014-4-21T16:30:45Z</time></trkpt>
<trkpt lat="43.10823300" lon="0.27446700"><ele></ele><time>2014-4-21T16:30:48Z</time></trkpt>
<trkpt lat="43.10835000" lon="0.27420000"><ele></ele><time>2014-4-21T16:30:51Z</time></trkpt>
<trkpt lat="43.10848300" lon="0.27355000"><ele></ele><time>2014-4-21T16:30:54Z</time></trkpt>
<trkpt lat="43.10843300" lon="0.27391700"><ele></ele><time>2014-4-21T16:30:57Z</time></trkpt>
<trkpt lat="43.10846700" lon="0.27436700"><ele></ele><time>2014-4-21T16:31:0Z</time></trkpt>
<trkpt lat="43.10853300" lon="0.27466700"><ele></ele><time>2014-4-21T16:31:3Z</time></trkpt>
<trkpt lat="43.10850000" lon="0.27523300"><ele></ele><time>2014-4-21T16:31:6Z</time></trkpt>
<trkpt lat="43.10845000" lon="0.27551700"><ele></ele><time>2014-4-21T16:31:9Z</time></trkpt>
<trkpt lat="43.10838300" lon="0.27580000"><ele></ele><time>2014-4-21T16:31:12Z</time></trkpt>
<trkpt lat="43.10835000" lon="0.27613300"><ele></ele><time>2014-4-21T16:31:15Z</time></trkpt>
<trkpt lat="43.10833300" lon="0.27651700"><ele></ele><time>2014-4-21T16:31:18Z</time></trkpt>
<trkpt lat="43.10830000" lon="0.27685000"><ele></ele><time>2014-4-21T16:31:21Z</time></trkpt>
<trkpt lat="43.10826700" lon="0.27726700"><ele></ele><time>2014-4-21T16:31:24Z</time></trkpt>
<trkpt lat="43.10810000" lon="0.27805000"><ele></ele><time>2014-4-21T16:31:27Z</time></trkpt>
<trkpt lat="43.10803300" lon="0.27825000"><ele></ele><time>2014-4-21T16:31:30Z</time></trkpt>
<trkpt lat="43.10800000" lon="0.27878300"><ele></ele><time>2014-4-21T16:31:33Z</time></trkpt>
<trkpt lat="43.10793300" lon="0.27900000"><ele></ele><time>2014-4-21T16:31:36Z</time></trkpt>
<trkpt lat="43.10790000" lon="0.27933300"><ele></ele><time>2014-4-21T16:31:39Z</time></trkpt>
<trkpt lat="43.10771700" lon="0.27975000"><ele></ele><time>2014-4-21T16:31:42Z</time></trkpt>
<trkpt lat="43.10758300" lon="0.28000000"><ele></ele><time>2014-4-21T16:31:45Z</time></trkpt>
<trkpt lat="43.10748300" lon="0.28018300"><ele></ele><time>2014-4-21T16:31:48Z</time></trkpt>
<trkpt lat="43.10733300" lon="0.28076700"><ele></ele><time>2014-4-21T16:31:51Z</time></trkpt>
<trkpt lat="43.10695000" lon="0.28208300"><ele></ele><time>2014-4-21T16:31:54Z</time></trkpt>
<trkpt lat="43.10718300" lon="0.28210000"><ele></ele><time>2014-4-21T16:31:57Z</time></trkpt>
<trkpt lat="43.10730000" lon="0.28235000"><ele></ele><time>2014-4-21T16:32:0Z</time></trkpt>
<trkpt lat="43.10736700" lon="0.28260000"><ele></ele><time>2014-4-21T16:32:3Z</time></trkpt>
<trkpt lat="43.10736700" lon="0.28296700"><ele></ele><time>2014-4-21T16:32:6Z</time></trkpt>
<trkpt lat="43.10740000" lon="0.28326700"><ele></ele><time>2014-4-21T16:32:9Z</time></trkpt>
<trkpt lat="43.10726700" lon="0.28375000"><ele></ele><time>2014-4-21T16:32:12Z</time></trkpt>
<trkpt lat="43.10723300" lon="0.28436700"><ele></ele><time>2014-4-21T16:32:15Z</time></trkpt>
<trkpt lat="43.10706700" lon="0.28461700"><ele></ele><time>2014-4-21T16:32:18Z</time></trkpt>
<trkpt lat="43.10696700" lon="0.28496700"><ele></ele><time>2014-4-21T16:32:21Z</time></trkpt>
<trkpt lat="43.10693300" lon="0.28545000"><ele></ele><time>2014-4-21T16:32:24Z</time></trkpt>
<trkpt lat="43.10688300" lon="0.28576700"><ele></ele><time>2014-4-21T16:32:27Z</time></trkpt>
<trkpt lat="43.10665000" lon="0.28618300"><ele></ele><time>2014-4-21T16:32:30Z</time></trkpt>
<trkpt lat="43.10651700" lon="0.28630000"><ele></ele><time>2014-4-21T16:32:33Z</time></trkpt>
<trkpt lat="43.10623300" lon="0.28641700"><ele></ele><time>2014-4-21T16:32:36Z</time></trkpt>
<trkpt lat="43.10610000" lon="0.28665000"><ele></ele><time>2014-4-21T16:32:39Z</time></trkpt>
<trkpt lat="43.10598300" lon="0.28680000"><ele></ele><time>2014-4-21T16:32:42Z</time></trkpt>
<trkpt lat="43.10580000" lon="0.28713300"><ele></ele><time>2014-4-21T16:32:45Z</time></trkpt>
<trkpt lat="43.10571700" lon="0.28733300"><ele></ele><time>2014-4-21T16:32:48Z</time></trkpt>
<trkpt lat="43.10558300" lon="0.28770000"><ele></ele><time>2014-4-21T16:32:51Z</time></trkpt>
<trkpt lat="43.10538300" lon="0.28800000"><ele></ele><time>2014-4-21T16:32:54Z</time></trkpt>
<trkpt lat="43.10518300" lon="0.28833300"><ele></ele><time>2014-4-21T16:32:57Z</time></trkpt>
<trkpt lat="43.10500000" lon="0.28868300"><ele></ele><time>2014-4-21T16:33:0Z</time></trkpt>
<trkpt lat="43.10480000" lon="0.28905000"><ele></ele><time>2014-4-21T16:33:3Z</time></trkpt>
<trkpt lat="43.10471700" lon="0.28923300"><ele></ele><time>2014-4-21T16:33:6Z</time></trkpt>
<trkpt lat="43.10433300" lon="0.28988300"><ele></ele><time>2014-4-21T16:33:9Z</time></trkpt>
<trkpt lat="43.10413300" lon="0.29001700"><ele></ele><time>2014-4-21T16:33:12Z</time></trkpt>
<trkpt lat="43.10386700" lon="0.29005000"><ele></ele><time>2014-4-21T16:33:15Z</time></trkpt>
<trkpt lat="43.10358300" lon="0.29031700"><ele></ele><time>2014-4-21T16:33:18Z</time></trkpt>
<trkpt lat="43.10313300" lon="0.29081700"><ele></ele><time>2014-4-21T16:33:21Z</time></trkpt>
<trkpt lat="43.10280000" lon="0.29131700"><ele></ele><time>2014-4-21T16:33:24Z</time></trkpt>
<trkpt lat="43.10265000" lon="0.29163300"><ele></ele><time>2014-4-21T16:33:27Z</time></trkpt>
<trkpt lat="43.10251700" lon="0.29188300"><ele></ele><time>2014-4-21T16:33:30Z</time></trkpt>
<trkpt lat="43.10153300" lon="0.29321700"><ele></ele><time>2014-4-21T16:33:33Z</time></trkpt>
<trkpt lat="43.10128300" lon="0.29340000"><ele></ele><time>2014-4-21T16:33:36Z</time></trkpt>
<trkpt lat="43.10060000" lon="0.29375000"><ele></ele><time>2014-4-21T16:33:39Z</time></trkpt>
<trkpt lat="43.09870000" lon="0.29560000"><ele></ele><time>2014-4-21T16:33:42Z</time></trkpt>
<trkpt lat="43.09803300" lon="0.29685000"><ele></ele><time>2014-4-21T16:33:45Z</time></trkpt>
<trkpt lat="43.09788300" lon="0.29708300"><ele></ele><time>2014-4-21T16:33:48Z</time></trkpt>
<trkpt lat="43.09776700" lon="0.29773300"><ele></ele><time>2014-4-21T16:33:51Z</time></trkpt>
<trkpt lat="43.09760000" lon="0.29823300"><ele></ele><time>2014-4-21T16:33:54Z</time></trkpt>
<trkpt lat="43.09746700" lon="0.29861700"><ele></ele><time>2014-4-21T16:33:57Z</time></trkpt>
<trkpt lat="43.09695000" lon="0.30025000"><ele></ele><time>2014-4-21T16:34:0Z</time></trkpt>
<trkpt lat="43.09695000" lon="0.30135000"><ele></ele><time>2014-4-21T16:34:3Z</time></trkpt>
<trkpt lat="43.09690000" lon="0.30283300"><ele></ele><time>2014-4-21T16:34:6Z</time></trkpt>
<trkpt lat="43.09695000" lon="0.30341700"><ele></ele><time>2014-4-21T16:34:9Z</time></trkpt>
<trkpt lat="43.09675000" lon="0.30481700"><ele></ele><time>2014-4-21T16:34:12Z</time></trkpt>
<trkpt lat="43.09675000" lon="0.30573300"><ele></ele><time>2014-4-21T16:34:15Z</time></trkpt>
<trkpt lat="43.09676700" lon="0.30610000"><ele></ele><time>2014-4-21T16:34:18Z</time></trkpt>
<trkpt lat="43.09670000" lon="0.30628300"><ele></ele><time>2014-4-21T16:34:21Z</time></trkpt>
<trkpt lat="43.09641700" lon="0.30601700"><ele></ele><time>2014-4-21T16:34:24Z</time></trkpt>
<trkpt lat="43.09623300" lon="0.30598300"><ele></ele><time>2014-4-21T16:34:27Z</time></trkpt>
<trkpt lat="43.09618300" lon="0.30660000"><ele></ele><time>2014-4-21T16:34:30Z</time></trkpt>
<trkpt lat="43.09616700" lon="0.30690000"><ele></ele><time>2014-4-21T16:34:33Z</time></trkpt>
<trkpt lat="43.09555000" lon="0.31376700"><ele></ele><time>2014-4-21T16:34:36Z</time></trkpt>
<trkpt lat="43.09510000" lon="0.31503300"><ele></ele><time>2014-4-21T16:34:39Z</time></trkpt>
<trkpt lat="43.09480000" lon="0.31660000"><ele></ele><time>2014-4-21T16:34:42Z</time></trkpt>
<trkpt lat="43.09408300" lon="0.32188300"><ele></ele><time>2014-4-21T16:34:45Z</time></trkpt>
<trkpt lat="43.09368300" lon="0.32551700"><ele></ele><time>2014-4-21T16:34:48Z</time></trkpt>
<trkpt lat="43.09376700" lon="0.32590000"><ele></ele><time>2014-4-21T16:34:51Z</time></trkpt>
<trkpt lat="43.09398300" lon="0.32618300"><ele></ele><time>2014-4-21T16:34:54Z</time></trkpt>
<trkpt lat="43.09363300" lon="0.32673300"><ele></ele><time>2014-4-21T16:34:57Z</time></trkpt>
<trkpt lat="43.09300000" lon="0.32801700"><ele></ele><time>2014-4-21T16:35:0Z</time></trkpt>
<trkpt lat="43.09248300" lon="0.32916700"><ele></ele><time>2014-4-21T16:35:3Z</time></trkpt>
<trkpt lat="43.09236700" lon="0.32943300"><ele></ele><time>2014-4-21T16:35:6Z</time></trkpt>
<trkpt lat="43.09225000" lon="0.32963300"><ele></ele><time>2014-4-21T16:35:9Z</time></trkpt>
<trkpt lat="43.09193300" lon="0.33028300"><ele></ele><time>2014-4-21T16:35:12Z</time></trkpt>
<trkpt lat="43.09126700" lon="0.33153300"><ele></ele><time>2014-4-21T16:35:15Z</time></trkpt>
<trkpt lat="43.09061700" lon="0.33283300"><ele></ele><time>2014-4-21T16:35:18Z</time></trkpt>
<trkpt lat="43.08978300" lon="0.33441700"><ele></ele><time>2014-4-21T16:35:21Z</time></trkpt>
<trkpt lat="43.08871700" lon="0.33453300"><ele></ele><time>2014-4-21T16:35:24Z</time></trkpt>
<trkpt lat="43.08810000" lon="0.33435000"><ele></ele><time>2014-4-21T16:35:27Z</time></trkpt>
<trkpt lat="43.08771700" lon="0.33425000"><ele></ele><time>2014-4-21T16:35:30Z</time></trkpt>
<trkpt lat="43.08760000" lon="0.33475000"><ele></ele><time>2014-4-21T16:35:33Z</time></trkpt>
<trkpt lat="43.08711700" lon="0.33490000"><ele></ele><time>2014-4-21T16:35:36Z</time></trkpt>
<trkpt lat="43.08690000" lon="0.33563300"><ele></ele><time>2014-4-21T16:35:39Z</time></trkpt>
<trkpt lat="43.08666700" lon="0.33695000"><ele></ele><time>2014-4-21T16:35:42Z</time></trkpt>
<trkpt lat="43.08651700" lon="0.33768300"><ele></ele><time>2014-4-21T16:35:45Z</time></trkpt>
<trkpt lat="43.08618300" lon="0.33928300"><ele></ele><time>2014-4-21T16:35:48Z</time></trkpt>
<trkpt lat="43.08601700" lon="0.33983300"><ele></ele><time>2014-4-21T16:35:51Z</time></trkpt>
<trkpt lat="43.08568300" lon="0.34105000"><ele></ele><time>2014-4-21T16:35:54Z</time></trkpt>
<trkpt lat="43.08526700" lon="0.34198300"><ele></ele><time>2014-4-21T16:35:57Z</time></trkpt>
<trkpt lat="43.08466700" lon="0.34298300"><ele></ele><time>2014-4-21T16:36:0Z</time></trkpt>
<trkpt lat="43.08443300" lon="0.34326700"><ele></ele><time>2014-4-21T16:36:3Z</time></trkpt>
<trkpt lat="43.08425000" lon="0.34375000"><ele></ele><time>2014-4-21T16:36:6Z</time></trkpt>
<trkpt lat="43.08405000" lon="0.34451700"><ele></ele><time>2014-4-21T16:36:9Z</time></trkpt>
<trkpt lat="43.08378300" lon="0.34523300"><ele></ele><time>2014-4-21T16:36:12Z</time></trkpt>
<trkpt lat="43.08361700" lon="0.34580000"><ele></ele><time>2014-4-21T16:36:15Z</time></trkpt>
<trkpt lat="43.08341700" lon="0.34615000"><ele></ele><time>2014-4-21T16:36:18Z</time></trkpt>
<trkpt lat="43.08296700" lon="0.34726700"><ele></ele><time>2014-4-21T16:36:21Z</time></trkpt>
<trkpt lat="43.08261700" lon="0.34735000"><ele></ele><time>2014-4-21T16:36:24Z</time></trkpt>
<trkpt lat="43.08226700" lon="0.34713300"><ele></ele><time>2014-4-21T16:36:27Z</time></trkpt>
<trkpt lat="43.08190000" lon="0.34675000"><ele></ele><time>2014-4-21T16:36:30Z</time></trkpt>
<trkpt lat="43.08146700" lon="0.34611700"><ele></ele><time>2014-4-21T16:36:33Z</time></trkpt>
<trkpt lat="43.08121700" lon="0.34596700"><ele></ele><time>2014-4-21T16:36:36Z</time></trkpt>
<trkpt lat="43.08033300" lon="0.34536700"><ele></ele><time>2014-4-21T16:36:39Z</time></trkpt>
<trkpt lat="43.08018300" lon="0.34530000"><ele></ele><time>2014-4-21T16:36:42Z</time></trkpt>
<trkpt lat="43.08020000" lon="0.34555000"><ele></ele><time>2014-4-21T16:36:45Z</time></trkpt>
<trkpt lat="43.08023300" lon="0.34585000"><ele></ele><time>2014-4-21T16:36:48Z</time></trkpt>
<trkpt lat="43.08021700" lon="0.34616700"><ele></ele><time>2014-4-21T16:36:51Z</time></trkpt>
<trkpt lat="43.08021700" lon="0.34636700"><ele></ele><time>2014-4-21T16:36:54Z</time></trkpt>
<trkpt lat="43.08008300" lon="0.34655000"><ele></ele><time>2014-4-21T16:36:57Z</time></trkpt>
<trkpt lat="43.07988300" lon="0.34678300"><ele></ele><time>2014-4-21T16:37:0Z</time></trkpt>
<trkpt lat="43.07976700" lon="0.34703300"><ele></ele><time>2014-4-21T16:37:3Z</time></trkpt>
<trkpt lat="43.07968300" lon="0.34721700"><ele></ele><time>2014-4-21T16:37:6Z</time></trkpt>
<trkpt lat="43.07958300" lon="0.34741700"><ele></ele><time>2014-4-21T16:37:9Z</time></trkpt>
<trkpt lat="43.07940000" lon="0.34771700"><ele></ele><time>2014-4-21T16:37:12Z</time></trkpt>
<trkpt lat="43.07935000" lon="0.34721700"><ele></ele><time>2014-4-21T16:37:15Z</time></trkpt>
<trkpt lat="43.07888300" lon="0.34755000"><ele></ele><time>2014-4-21T16:37:18Z</time></trkpt>
<trkpt lat="43.07875000" lon="0.34785000"><ele></ele><time>2014-4-21T16:37:21Z</time></trkpt>
<trkpt lat="43.07805000" lon="0.34930000"><ele></ele><time>2014-4-21T16:37:24Z</time></trkpt>
<trkpt lat="43.07786700" lon="0.34941700"><ele></ele><time>2014-4-21T16:37:27Z</time></trkpt>
<trkpt lat="43.07730000" lon="0.34855000"><ele></ele><time>2014-4-21T16:37:30Z</time></trkpt>
<trkpt lat="43.07328300" lon="0.35031700"><ele></ele><time>2014-4-21T16:37:33Z</time></trkpt>
<trkpt lat="43.07345000" lon="0.35098300"><ele></ele><time>2014-4-21T16:37:36Z</time></trkpt>
<trkpt lat="43.07176700" lon="0.35218300"><ele></ele><time>2014-4-21T16:37:39Z</time></trkpt>
<trkpt lat="43.07060000" lon="0.35140000"><ele></ele><time>2014-4-21T16:37:42Z</time></trkpt>
<trkpt lat="43.07018300" lon="0.35075000"><ele></ele><time>2014-4-21T16:37:45Z</time></trkpt>
<trkpt lat="43.06981700" lon="0.34943300"><ele></ele><time>2014-4-21T16:37:48Z</time></trkpt>
<trkpt lat="43.06931700" lon="0.34950000"><ele></ele><time>2014-4-21T16:37:51Z</time></trkpt>
<trkpt lat="43.06823300" lon="0.34980000"><ele></ele><time>2014-4-21T16:37:54Z</time></trkpt>
<trkpt lat="43.06768300" lon="0.34985000"><ele></ele><time>2014-4-21T16:37:57Z</time></trkpt>
<trkpt lat="43.06591700" lon="0.35013300"><ele></ele><time>2014-4-21T16:38:0Z</time></trkpt>
<trkpt lat="43.06471700" lon="0.35051700"><ele></ele><time>2014-4-21T16:38:3Z</time></trkpt>
<trkpt lat="43.06425000" lon="0.35068300"><ele></ele><time>2014-4-21T16:38:6Z</time></trkpt>
<trkpt lat="43.06393300" lon="0.35088300"><ele></ele><time>2014-4-21T16:38:9Z</time></trkpt>
<trkpt lat="43.06388300" lon="0.35105000"><ele></ele><time>2014-4-21T16:38:12Z</time></trkpt>
<trkpt lat="43.06368300" lon="0.35118300"><ele></ele><time>2014-4-21T16:38:15Z</time></trkpt>
<trkpt lat="43.06358300" lon="0.35131700"><ele></ele><time>2014-4-21T16:38:18Z</time></trkpt>
<trkpt lat="43.06333300" lon="0.35290000"><ele></ele><time>2014-4-21T16:38:21Z</time></trkpt>
<trkpt lat="43.06328300" lon="0.35325000"><ele></ele><time>2014-4-21T16:38:24Z</time></trkpt>
<trkpt lat="43.06320000" lon="0.35360000"><ele></ele><time>2014-4-21T16:38:27Z</time></trkpt>
<trkpt lat="43.06311700" lon="0.35393300"><ele></ele><time>2014-4-21T16:38:30Z</time></trkpt>
<trkpt lat="43.06315000" lon="0.35438300"><ele></ele><time>2014-4-21T16:38:33Z</time></trkpt>
<trkpt lat="43.06316700" lon="0.35523300"><ele></ele><time>2014-4-21T16:38:36Z</time></trkpt>
<trkpt lat="43.06288300" lon="0.35593300"><ele></ele><time>2014-4-21T16:38:39Z</time></trkpt>
<trkpt lat="43.06238300" lon="0.35655000"><ele></ele><time>2014-4-21T16:38:42Z</time></trkpt>
<trkpt lat="43.06158300" lon="0.35708300"><ele></ele><time>2014-4-21T16:38:45Z</time></trkpt>
<trkpt lat="43.06123300" lon="0.35711700"><ele></ele><time>2014-4-21T16:38:48Z</time></trkpt>
<trkpt lat="43.05966700" lon="0.35760000"><ele></ele><time>2014-4-21T16:38:51Z</time></trkpt>
<trkpt lat="43.05913300" lon="0.35770000"><ele></ele><time>2014-4-21T16:38:54Z</time></trkpt>
<trkpt lat="43.05795000" lon="0.35778300"><ele></ele><time>2014-4-21T16:38:57Z</time></trkpt>
<trkpt lat="43.05736700" lon="0.35768300"><ele></ele><time>2014-4-21T16:39:0Z</time></trkpt>
<trkpt lat="43.05640000" lon="0.35720000"><ele></ele><time>2014-4-21T16:39:3Z</time></trkpt>
<trkpt lat="43.05613300" lon="0.35698300"><ele></ele><time>2014-4-21T16:39:6Z</time></trkpt>
<trkpt lat="43.05578300" lon="0.35666700"><ele></ele><time>2014-4-21T16:39:9Z</time></trkpt>
<trkpt lat="43.05553300" lon="0.35646700"><ele></ele><time>2014-4-21T16:39:12Z</time></trkpt>
<trkpt lat="43.05516700" lon="0.35605000"><ele></ele><time>2014-4-21T16:39:15Z</time></trkpt>
<trkpt lat="43.05416700" lon="0.35498300"><ele></ele><time>2014-4-21T16:39:18Z</time></trkpt>
<trkpt lat="43.05325000" lon="0.35328300"><ele></ele><time>2014-4-21T16:39:21Z</time></trkpt>
<trkpt lat="43.05340000" lon="0.35288300"><ele></ele><time>2014-4-21T16:39:24Z</time></trkpt>
<trkpt lat="43.05346700" lon="0.35251700"><ele></ele><time>2014-4-21T16:39:27Z</time></trkpt>
<trkpt lat="43.05335000" lon="0.35213300"><ele></ele><time>2014-4-21T16:39:30Z</time></trkpt>
<trkpt lat="43.05281700" lon="0.35173300"><ele></ele><time>2014-4-21T16:39:33Z</time></trkpt>
<trkpt lat="43.05215000" lon="0.35166700"><ele></ele><time>2014-4-21T16:39:36Z</time></trkpt>
<trkpt lat="43.05165000" lon="0.35205000"><ele></ele><time>2014-4-21T16:39:39Z</time></trkpt>
<trkpt lat="43.05140000" lon="0.35206700"><ele></ele><time>2014-4-21T16:39:42Z</time></trkpt>
<trkpt lat="43.05146700" lon="0.35166700"><ele></ele><time>2014-4-21T16:39:45Z</time></trkpt>
<trkpt lat="43.05151700" lon="0.35125000"><ele></ele><time>2014-4-21T16:39:48Z</time></trkpt>
<trkpt lat="43.05161700" lon="0.35085000"><ele></ele><time>2014-4-21T16:39:51Z</time></trkpt>
<trkpt lat="43.05203300" lon="0.35018300"><ele></ele><time>2014-4-21T16:39:54Z</time></trkpt>
<trkpt lat="43.05201700" lon="0.34966700"><ele></ele><time>2014-4-21T16:39:57Z</time></trkpt>
<trkpt lat="43.05176700" lon="0.34913300"><ele></ele><time>2014-4-21T16:40:0Z</time></trkpt>
<trkpt lat="43.05120000" lon="0.34845000"><ele></ele><time>2014-4-21T16:40:3Z</time></trkpt>
<trkpt lat="43.05090000" lon="0.34823300"><ele></ele><time>2014-4-21T16:40:6Z</time></trkpt>
<trkpt lat="43.05048300" lon="0.34813300"><ele></ele><time>2014-4-21T16:40:9Z</time></trkpt>
<trkpt lat="43.04961700" lon="0.34766700"><ele></ele><time>2014-4-21T16:40:12Z</time></trkpt>
<trkpt lat="43.04950000" lon="0.34721700"><ele></ele><time>2014-4-21T16:40:15Z</time></trkpt>
<trkpt lat="43.04921700" lon="0.34675000"><ele></ele><time>2014-4-21T16:40:18Z</time></trkpt>
<trkpt lat="43.04875000" lon="0.34606700"><ele></ele><time>2014-4-21T16:40:21Z</time></trkpt>
<trkpt lat="43.04828300" lon="0.34665000"><ele></ele><time>2014-4-21T16:40:24Z</time></trkpt>
<trkpt lat="43.04746700" lon="0.34821700"><ele></ele><time>2014-4-21T16:40:27Z</time></trkpt>
<trkpt lat="43.04718300" lon="0.34923300"><ele></ele><time>2014-4-21T16:40:30Z</time></trkpt>
<trkpt lat="43.04715000" lon="0.34946700"><ele></ele><time>2014-4-21T16:40:33Z</time></trkpt>
<trkpt lat="43.04680000" lon="0.34883300"><ele></ele><time>2014-4-21T16:40:36Z</time></trkpt>
<trkpt lat="43.04671700" lon="0.34840000"><ele></ele><time>2014-4-21T16:40:39Z</time></trkpt>
<trkpt lat="43.04670000" lon="0.34808300"><ele></ele><time>2014-4-21T16:40:42Z</time></trkpt>
<trkpt lat="43.04656700" lon="0.34733300"><ele></ele><time>2014-4-21T16:40:45Z</time></trkpt>
<trkpt lat="43.04643300" lon="0.34661700"><ele></ele><time>2014-4-21T16:40:48Z</time></trkpt>
<trkpt lat="43.04636700" lon="0.34635000"><ele></ele><time>2014-4-21T16:40:51Z</time></trkpt>
<trkpt lat="43.04585000" lon="0.34531700"><ele></ele><time>2014-4-21T16:40:54Z</time></trkpt>
<trkpt lat="43.04575000" lon="0.34496700"><ele></ele><time>2014-4-21T16:40:57Z</time></trkpt>
<trkpt lat="43.04565000" lon="0.34415000"><ele></ele><time>2014-4-21T16:41:0Z</time></trkpt>
<trkpt lat="43.04553300" lon="0.34341700"><ele></ele><time>2014-4-21T16:41:3Z</time></trkpt>
<trkpt lat="43.04528300" lon="0.34240000"><ele></ele><time>2014-4-21T16:41:6Z</time></trkpt>
<trkpt lat="43.04460000" lon="0.34136700"><ele></ele><time>2014-4-21T16:41:9Z</time></trkpt>
<trkpt lat="43.04306700" lon="0.33991700"><ele></ele><time>2014-4-21T16:41:12Z</time></trkpt>
<trkpt lat="43.04246700" lon="0.33893300"><ele></ele><time>2014-4-21T16:41:15Z</time></trkpt>
<trkpt lat="43.04163300" lon="0.33703300"><ele></ele><time>2014-4-21T16:41:18Z</time></trkpt>
<trkpt lat="43.04156700" lon="0.33583300"><ele></ele><time>2014-4-21T16:41:21Z</time></trkpt>
<trkpt lat="43.04156700" lon="0.33555000"><ele></ele><time>2014-4-21T16:41:24Z</time></trkpt>
<trkpt lat="43.04180000" lon="0.33531700"><ele></ele><time>2014-4-21T16:41:27Z</time></trkpt>
<trkpt lat="43.04210000" lon="0.33406700"><ele></ele><time>2014-4-21T16:41:30Z</time></trkpt>
<trkpt lat="43.04218300" lon="0.33350000"><ele></ele><time>2014-4-21T16:41:33Z</time></trkpt>
<trkpt lat="43.04238300" lon="0.33285000"><ele></ele><time>2014-4-21T16:41:36Z</time></trkpt>
<trkpt lat="43.04240000" lon="0.33253300"><ele></ele><time>2014-4-21T16:41:39Z</time></trkpt>
<trkpt lat="43.04240000" lon="0.33220000"><ele></ele><time>2014-4-21T16:41:42Z</time></trkpt>
<trkpt lat="43.04246700" lon="0.33201700"><ele></ele><time>2014-4-21T16:41:45Z</time></trkpt>
<trkpt lat="43.04255000" lon="0.33183300"><ele></ele><time>2014-4-21T16:41:48Z</time></trkpt>
<trkpt lat="43.04261700" lon="0.33105000"><ele></ele><time>2014-4-21T16:41:51Z</time></trkpt>
<trkpt lat="43.04263300" lon="0.33085000"><ele></ele><time>2014-4-21T16:41:54Z</time></trkpt>
<trkpt lat="43.04270000" lon="0.33056700"><ele></ele><time>2014-4-21T16:41:57Z</time></trkpt>
<trkpt lat="43.04276700" lon="0.33020000"><ele></ele><time>2014-4-21T16:42:0Z</time></trkpt>
<trkpt lat="43.04296700" lon="0.32973300"><ele></ele><time>2014-4-21T16:42:3Z</time></trkpt>
<trkpt lat="43.04311700" lon="0.32955000"><ele></ele><time>2014-4-21T16:42:6Z</time></trkpt>
<trkpt lat="43.04320000" lon="0.32911700"><ele></ele><time>2014-4-21T16:42:9Z</time></trkpt>
<trkpt lat="43.04348300" lon="0.32850000"><ele></ele><time>2014-4-21T16:42:12Z</time></trkpt>
<trkpt lat="43.04371700" lon="0.32808300"><ele></ele><time>2014-4-21T16:42:15Z</time></trkpt>
<trkpt lat="43.04381700" lon="0.32781700"><ele></ele><time>2014-4-21T16:42:18Z</time></trkpt>
<trkpt lat="43.04425000" lon="0.32755000"><ele></ele><time>2014-4-21T16:42:21Z</time></trkpt>
<trkpt lat="43.04481700" lon="0.32756700"><ele></ele><time>2014-4-21T16:42:24Z</time></trkpt>
<trkpt lat="43.04485000" lon="0.32710000"><ele></ele><time>2014-4-21T16:42:27Z</time></trkpt>
<trkpt lat="43.04501700" lon="0.32673300"><ele></ele><time>2014-4-21T16:42:30Z</time></trkpt>
<trkpt lat="43.04505000" lon="0.32645000"><ele></ele><time>2014-4-21T16:42:33Z</time></trkpt>
<trkpt lat="43.04515000" lon="0.32623300"><ele></ele><time>2014-4-21T16:42:36Z</time></trkpt>
<trkpt lat="43.04526700" lon="0.32588300"><ele></ele><time>2014-4-21T16:42:39Z</time></trkpt>
<trkpt lat="43.04551700" lon="0.32570000"><ele></ele><time>2014-4-21T16:42:42Z</time></trkpt>
<trkpt lat="43.04556700" lon="0.32531700"><ele></ele><time>2014-4-21T16:42:45Z</time></trkpt>
<trkpt lat="43.04565000" lon="0.32495000"><ele></ele><time>2014-4-21T16:42:48Z</time></trkpt>
<trkpt lat="43.04566700" lon="0.32460000"><ele></ele><time>2014-4-21T16:42:51Z</time></trkpt>
<trkpt lat="43.04550000" lon="0.32436700"><ele></ele><time>2014-4-21T16:42:54Z</time></trkpt>
<trkpt lat="43.04548300" lon="0.32410000"><ele></ele><time>2014-4-21T16:42:57Z</time></trkpt>
<trkpt lat="43.04561700" lon="0.32356700"><ele></ele><time>2014-4-21T16:43:0Z</time></trkpt>
<trkpt lat="43.04578300" lon="0.32305000"><ele></ele><time>2014-4-21T16:43:3Z</time></trkpt>
<trkpt lat="43.04595000" lon="0.32281700"><ele></ele><time>2014-4-21T16:43:6Z</time></trkpt>
<trkpt lat="43.04608300" lon="0.32230000"><ele></ele><time>2014-4-21T16:43:9Z</time></trkpt>
<trkpt lat="43.04640000" lon="0.32090000"><ele></ele><time>2014-4-21T16:43:12Z</time></trkpt>
<trkpt lat="43.04663300" lon="0.32070000"><ele></ele><time>2014-4-21T16:43:15Z</time></trkpt>
<trkpt lat="43.04680000" lon="0.32053300"><ele></ele><time>2014-4-21T16:43:18Z</time></trkpt>
<trkpt lat="43.04685000" lon="0.31986700"><ele></ele><time>2014-4-21T16:43:21Z</time></trkpt>
<trkpt lat="43.04698300" lon="0.31926700"><ele></ele><time>2014-4-21T16:43:24Z</time></trkpt>
<trkpt lat="43.04710000" lon="0.31876700"><ele></ele><time>2014-4-21T16:43:27Z</time></trkpt>
<trkpt lat="43.04743300" lon="0.31680000"><ele></ele><time>2014-4-21T16:43:30Z</time></trkpt>
<trkpt lat="43.04781700" lon="0.31636700"><ele></ele><time>2014-4-21T16:43:33Z</time></trkpt>
<trkpt lat="43.04863300" lon="0.31516700"><ele></ele><time>2014-4-21T16:43:36Z</time></trkpt>
<trkpt lat="43.04885000" lon="0.31485000"><ele></ele><time>2014-4-21T16:43:39Z</time></trkpt>
<trkpt lat="43.04928300" lon="0.31461700"><ele></ele><time>2014-4-21T16:43:42Z</time></trkpt>
<trkpt lat="43.04948300" lon="0.31421700"><ele></ele><time>2014-4-21T16:43:45Z</time></trkpt>
<trkpt lat="43.04966700" lon="0.31350000"><ele></ele><time>2014-4-21T16:43:48Z</time></trkpt>
<trkpt lat="43.04951700" lon="0.31256700"><ele></ele><time>2014-4-21T16:43:51Z</time></trkpt>
<trkpt lat="43.04981700" lon="0.31206700"><ele></ele><time>2014-4-21T16:43:54Z</time></trkpt>
<trkpt lat="43.05011700" lon="0.31178300"><ele></ele><time>2014-4-21T16:43:57Z</time></trkpt>
<trkpt lat="43.05081700" lon="0.31130000"><ele></ele><time>2014-4-21T16:44:0Z</time></trkpt>
<trkpt lat="43.05093300" lon="0.31105000"><ele></ele><time>2014-4-21T16:44:3Z</time></trkpt>
<trkpt lat="43.05113300" lon="0.31075000"><ele></ele><time>2014-4-21T16:44:6Z</time></trkpt>
<trkpt lat="43.05103300" lon="0.31046700"><ele></ele><time>2014-4-21T16:44:9Z</time></trkpt>
<trkpt lat="43.05090000" lon="0.31021700"><ele></ele><time>2014-4-21T16:44:12Z</time></trkpt>
<trkpt lat="43.05051700" lon="0.30958300"><ele></ele><time>2014-4-21T16:44:15Z</time></trkpt>
<trkpt lat="43.05068300" lon="0.30906700"><ele></ele><time>2014-4-21T16:44:18Z</time></trkpt>
<trkpt lat="43.05120000" lon="0.30750000"><ele></ele><time>2014-4-21T16:44:21Z</time></trkpt>
<trkpt lat="43.05171700" lon="0.30673300"><ele></ele><time>2014-4-21T16:44:24Z</time></trkpt>
<trkpt lat="43.05196700" lon="0.30650000"><ele></ele><time>2014-4-21T16:44:27Z</time></trkpt>
<trkpt lat="43.05243300" lon="0.30651700"><ele></ele><time>2014-4-21T16:44:30Z</time></trkpt>
<trkpt lat="43.05290000" lon="0.30693300"><ele></ele><time>2014-4-21T16:44:33Z</time></trkpt>
<trkpt lat="43.05306700" lon="0.30733300"><ele></ele><time>2014-4-21T16:44:36Z</time></trkpt>
<trkpt lat="43.05316700" lon="0.30773300"><ele></ele><time>2014-4-21T16:44:39Z</time></trkpt>
<trkpt lat="43.05370000" lon="0.30811700"><ele></ele><time>2014-4-21T16:44:42Z</time></trkpt>
<trkpt lat="43.05366700" lon="0.30898300"><ele></ele><time>2014-4-21T16:44:45Z</time></trkpt>
<trkpt lat="43.05373300" lon="0.30931700"><ele></ele><time>2014-4-21T16:44:48Z</time></trkpt>
<trkpt lat="43.05416700" lon="0.30926700"><ele></ele><time>2014-4-21T16:44:51Z</time></trkpt>
<trkpt lat="43.05455000" lon="0.30946700"><ele></ele><time>2014-4-21T16:44:54Z</time></trkpt>
<trkpt lat="43.05465000" lon="0.30958300"><ele></ele><time>2014-4-21T16:44:57Z</time></trkpt>
<trkpt lat="43.05511700" lon="0.30925000"><ele></ele><time>2014-4-21T16:45:0Z</time></trkpt>
<trkpt lat="43.05540000" lon="0.30913300"><ele></ele><time>2014-4-21T16:45:3Z</time></trkpt>
<trkpt lat="43.05571700" lon="0.30911700"><ele></ele><time>2014-4-21T16:45:6Z</time></trkpt>
<trkpt lat="43.05583300" lon="0.30940000"><ele></ele><time>2014-4-21T16:45:9Z</time></trkpt>
<trkpt lat="43.05610000" lon="0.30925000"><ele></ele><time>2014-4-21T16:45:12Z</time></trkpt>
<trkpt lat="43.05695000" lon="0.30766700"><ele></ele><time>2014-4-21T16:45:15Z</time></trkpt>
<trkpt lat="43.05748300" lon="0.30690000"><ele></ele><time>2014-4-21T16:45:18Z</time></trkpt>
<trkpt lat="43.05766700" lon="0.30665000"><ele></ele><time>2014-4-21T16:45:21Z</time></trkpt>
<trkpt lat="43.05786700" lon="0.30661700"><ele></ele><time>2014-4-21T16:45:24Z</time></trkpt>
<trkpt lat="43.05818300" lon="0.30615000"><ele></ele><time>2014-4-21T16:45:27Z</time></trkpt>
<trkpt lat="43.05836700" lon="0.30570000"><ele></ele><time>2014-4-21T16:45:30Z</time></trkpt>
<trkpt lat="43.05873300" lon="0.30436700"><ele></ele><time>2014-4-21T16:45:33Z</time></trkpt>
<trkpt lat="43.05911700" lon="0.30386700"><ele></ele><time>2014-4-21T16:45:36Z</time></trkpt>
<trkpt lat="43.05965000" lon="0.30378300"><ele></ele><time>2014-4-21T16:45:39Z</time></trkpt>
<trkpt lat="43.05950000" lon="0.30323300"><ele></ele><time>2014-4-21T16:45:42Z</time></trkpt>
<trkpt lat="43.05920000" lon="0.30280000"><ele></ele><time>2014-4-21T16:45:45Z</time></trkpt>
<trkpt lat="43.05976700" lon="0.30251700"><ele></ele><time>2014-4-21T16:45:48Z</time></trkpt>
<trkpt lat="43.06048300" lon="0.30211700"><ele></ele><time>2014-4-21T16:45:51Z</time></trkpt>
<trkpt lat="43.06035000" lon="0.30143300"><ele></ele><time>2014-4-21T16:45:54Z</time></trkpt>
<trkpt lat="43.06046700" lon="0.30078300"><ele></ele><time>2014-4-21T16:45:57Z</time></trkpt>
<trkpt lat="43.06065000" lon="0.30025000"><ele></ele><time>2014-4-21T16:46:0Z</time></trkpt>
<trkpt lat="43.06080000" lon="0.30006700"><ele></ele><time>2014-4-21T16:46:3Z</time></trkpt>
<trkpt lat="43.06095000" lon="0.29965000"><ele></ele><time>2014-4-21T16:46:6Z</time></trkpt>
<trkpt lat="43.06118300" lon="0.29936700"><ele></ele><time>2014-4-21T16:46:9Z</time></trkpt>
<trkpt lat="43.06146700" lon="0.29923300"><ele></ele><time>2014-4-21T16:46:12Z</time></trkpt>
<trkpt lat="43.06190000" lon="0.29940000"><ele></ele><time>2014-4-21T16:46:15Z</time></trkpt>
<trkpt lat="43.06221700" lon="0.29973300"><ele></ele><time>2014-4-21T16:46:18Z</time></trkpt>
<trkpt lat="43.06258300" lon="0.30020000"><ele></ele><time>2014-4-21T16:46:21Z</time></trkpt>
<trkpt lat="43.06316700" lon="0.30183300"><ele></ele><time>2014-4-21T16:46:24Z</time></trkpt>
<trkpt lat="43.06346700" lon="0.30281700"><ele></ele><time>2014-4-21T16:46:27Z</time></trkpt>
<trkpt lat="43.06348300" lon="0.30318300"><ele></ele><time>2014-4-21T16:46:30Z</time></trkpt>
<trkpt lat="43.06373300" lon="0.30300000"><ele></ele><time>2014-4-21T16:46:33Z</time></trkpt>
<trkpt lat="43.06395000" lon="0.30253300"><ele></ele><time>2014-4-21T16:46:36Z</time></trkpt>
<trkpt lat="43.06405000" lon="0.30238300"><ele></ele><time>2014-4-21T16:46:39Z</time></trkpt>
<trkpt lat="43.06490000" lon="0.30186700"><ele></ele><time>2014-4-21T16:46:42Z</time></trkpt>
<trkpt lat="43.06520000" lon="0.30131700"><ele></ele><time>2014-4-21T16:46:45Z</time></trkpt>
<trkpt lat="43.06526700" lon="0.30051700"><ele></ele><time>2014-4-21T16:46:48Z</time></trkpt>
<trkpt lat="43.06520000" lon="0.29978300"><ele></ele><time>2014-4-21T16:46:51Z</time></trkpt>
<trkpt lat="43.06505000" lon="0.29891700"><ele></ele><time>2014-4-21T16:46:54Z</time></trkpt>
<trkpt lat="43.06493300" lon="0.29843300"><ele></ele><time>2014-4-21T16:46:57Z</time></trkpt>
<trkpt lat="43.06490000" lon="0.29786700"><ele></ele><time>2014-4-21T16:47:0Z</time></trkpt>
<trkpt lat="43.06476700" lon="0.29763300"><ele></ele><time>2014-4-21T16:47:3Z</time></trkpt>
<trkpt lat="43.06508300" lon="0.29751700"><ele></ele><time>2014-4-21T16:47:6Z</time></trkpt>
<trkpt lat="43.06511700" lon="0.29793300"><ele></ele><time>2014-4-21T16:47:9Z</time></trkpt>
<trkpt lat="43.06528300" lon="0.29826700"><ele></ele><time>2014-4-21T16:47:12Z</time></trkpt>
<trkpt lat="43.06553300" lon="0.29856700"><ele></ele><time>2014-4-21T16:47:15Z</time></trkpt>
<trkpt lat="43.06583300" lon="0.29885000"><ele></ele><time>2014-4-21T16:47:18Z</time></trkpt>
<trkpt lat="43.06613300" lon="0.29878300"><ele></ele><time>2014-4-21T16:47:21Z</time></trkpt>
<trkpt lat="43.06653300" lon="0.29846700"><ele></ele><time>2014-4-21T16:47:24Z</time></trkpt>
<trkpt lat="43.06726700" lon="0.29820000"><ele></ele><time>2014-4-21T16:47:27Z</time></trkpt>
<trkpt lat="43.06761700" lon="0.29843300"><ele></ele><time>2014-4-21T16:47:30Z</time></trkpt>
<trkpt lat="43.06773300" lon="0.29901700"><ele></ele><time>2014-4-21T16:47:33Z</time></trkpt>
<trkpt lat="43.06745000" lon="0.30023300"><ele></ele><time>2014-4-21T16:47:36Z</time></trkpt>
<trkpt lat="43.06740000" lon="0.30070000"><ele></ele><time>2014-4-21T16:47:39Z</time></trkpt>
<trkpt lat="43.06723300" lon="0.30131700"><ele></ele><time>2014-4-21T16:47:42Z</time></trkpt>
<trkpt lat="43.06676700" lon="0.30183300"><ele></ele><time>2014-4-21T16:47:45Z</time></trkpt>
<trkpt lat="43.06636700" lon="0.30198300"><ele></ele><time>2014-4-21T16:47:48Z</time></trkpt>
<trkpt lat="43.06611700" lon="0.30231700"><ele></ele><time>2014-4-21T16:47:51Z</time></trkpt>
<trkpt lat="43.06590000" lon="0.30261700"><ele></ele><time>2014-4-21T16:47:54Z</time></trkpt>
<trkpt lat="43.06548300" lon="0.30281700"><ele></ele><time>2014-4-21T16:47:57Z</time></trkpt>
<trkpt lat="43.06470000" lon="0.30293300"><ele></ele><time>2014-4-21T16:48:0Z</time></trkpt>
<trkpt lat="43.06450000" lon="0.30303300"><ele></ele><time>2014-4-21T16:48:3Z</time></trkpt>
<trkpt lat="43.06486700" lon="0.30310000"><ele></ele><time>2014-4-21T16:48:6Z</time></trkpt>
<trkpt lat="43.06503300" lon="0.30325000"><ele></ele><time>2014-4-21T16:48:9Z</time></trkpt>
<trkpt lat="43.06476700" lon="0.30338300"><ele></ele><time>2014-4-21T16:48:12Z</time></trkpt>
<trkpt lat="43.06560000" lon="0.30355000"><ele></ele><time>2014-4-21T16:48:15Z</time></trkpt>
<trkpt lat="43.06623300" lon="0.30358300"><ele></ele><time>2014-4-21T16:48:18Z</time></trkpt>
<trkpt lat="43.06658300" lon="0.30408300"><ele></ele><time>2014-4-21T16:48:21Z</time></trkpt>
<trkpt lat="43.06708300" lon="0.30461700"><ele></ele><time>2014-4-21T16:48:24Z</time></trkpt>
<trkpt lat="43.06813300" lon="0.30516700"><ele></ele><time>2014-4-21T16:48:27Z</time></trkpt>
<trkpt lat="43.06846700" lon="0.30521700"><ele></ele><time>2014-4-21T16:48:30Z</time></trkpt>
<trkpt lat="43.06863300" lon="0.30516700"><ele></ele><time>2014-4-21T16:48:33Z</time></trkpt>
<trkpt lat="43.06943300" lon="0.29963300"><ele></ele><time>2014-4-21T16:48:36Z</time></trkpt>
<trkpt lat="43.06773300" lon="0.29325000"><ele></ele><time>2014-4-21T16:48:39Z</time></trkpt>
<trkpt lat="43.06796700" lon="0.29306700"><ele></ele><time>2014-4-21T16:48:42Z</time></trkpt>
<trkpt lat="43.06793300" lon="0.29245000"><ele></ele><time>2014-4-21T16:48:45Z</time></trkpt>
<trkpt lat="43.06851700" lon="0.29243300"><ele></ele><time>2014-4-21T16:48:48Z</time></trkpt>
<trkpt lat="43.06893300" lon="0.29231700"><ele></ele><time>2014-4-21T16:48:51Z</time></trkpt>
<trkpt lat="43.06963300" lon="0.29251700"><ele></ele><time>2014-4-21T16:48:54Z</time></trkpt>
<trkpt lat="43.06993300" lon="0.29236700"><ele></ele><time>2014-4-21T16:48:57Z</time></trkpt>
<trkpt lat="43.07008300" lon="0.29230000"><ele></ele><time>2014-4-21T16:49:0Z</time></trkpt>
<trkpt lat="43.07046700" lon="0.29223300"><ele></ele><time>2014-4-21T16:49:3Z</time></trkpt>
<trkpt lat="43.07061700" lon="0.29211700"><ele></ele><time>2014-4-21T16:49:6Z</time></trkpt>
<trkpt lat="43.07315000" lon="0.29216700"><ele></ele><time>2014-4-21T16:49:9Z</time></trkpt>
<trkpt lat="43.07375000" lon="0.29250000"><ele></ele><time>2014-4-21T16:49:12Z</time></trkpt>
<trkpt lat="43.07396700" lon="0.29246700"><ele></ele><time>2014-4-21T16:49:15Z</time></trkpt>
<trkpt lat="43.07420000" lon="0.29228300"><ele></ele><time>2014-4-21T16:49:18Z</time></trkpt>
<trkpt lat="43.07450000" lon="0.29216700"><ele></ele><time>2014-4-21T16:49:21Z</time></trkpt>
<trkpt lat="43.07485000" lon="0.29178300"><ele></ele><time>2014-4-21T16:49:24Z</time></trkpt>
<trkpt lat="43.07505000" lon="0.29160000"><ele></ele><time>2014-4-21T16:49:27Z</time></trkpt>
<trkpt lat="43.07523300" lon="0.29131700"><ele></ele><time>2014-4-21T16:49:30Z</time></trkpt>
<trkpt lat="43.07530000" lon="0.29108300"><ele></ele><time>2014-4-21T16:49:33Z</time></trkpt>
<trkpt lat="43.07533300" lon="0.29081700"><ele></ele><time>2014-4-21T16:49:36Z</time></trkpt>
<trkpt lat="43.07513300" lon="0.28920000"><ele></ele><time>2014-4-21T16:49:39Z</time></trkpt>
<trkpt lat="43.07551700" lon="0.28863300"><ele></ele><time>2014-4-21T16:49:42Z</time></trkpt>
<trkpt lat="43.07596700" lon="0.28851700"><ele></ele><time>2014-4-21T16:49:45Z</time></trkpt>
<trkpt lat="43.07653300" lon="0.28850000"><ele></ele><time>2014-4-21T16:49:48Z</time></trkpt>
<trkpt lat="43.07706700" lon="0.28858300"><ele></ele><time>2014-4-21T16:49:51Z</time></trkpt>
<trkpt lat="43.07756700" lon="0.28856700"><ele></ele><time>2014-4-21T16:49:54Z</time></trkpt>
<trkpt lat="43.07835000" lon="0.28888300"><ele></ele><time>2014-4-21T16:49:57Z</time></trkpt>
<trkpt lat="43.07976700" lon="0.28836700"><ele></ele><time>2014-4-21T16:50:0Z</time></trkpt>
<trkpt lat="43.07993300" lon="0.28810000"><ele></ele><time>2014-4-21T16:50:3Z</time></trkpt>
<trkpt lat="43.08018300" lon="0.28808300"><ele></ele><time>2014-4-21T16:50:6Z</time></trkpt>
<trkpt lat="43.08081700" lon="0.28768300"><ele></ele><time>2014-4-21T16:50:9Z</time></trkpt>
<trkpt lat="43.08113300" lon="0.28698300"><ele></ele><time>2014-4-21T16:50:12Z</time></trkpt>
<trkpt lat="43.08163300" lon="0.28626700"><ele></ele><time>2014-4-21T16:50:15Z</time></trkpt>
<trkpt lat="43.08190000" lon="0.28591700"><ele></ele><time>2014-4-21T16:50:18Z</time></trkpt>
<trkpt lat="43.08203300" lon="0.28538300"><ele></ele><time>2014-4-21T16:50:21Z</time></trkpt>
<trkpt lat="43.08250000" lon="0.28465000"><ele></ele><time>2014-4-21T16:50:24Z</time></trkpt>
<trkpt lat="43.08290000" lon="0.28406700"><ele></ele><time>2014-4-21T16:50:27Z</time></trkpt>
<trkpt lat="43.08326700" lon="0.28328300"><ele></ele><time>2014-4-21T16:50:30Z</time></trkpt>
<trkpt lat="43.08345000" lon="0.28288300"><ele></ele><time>2014-4-21T16:50:33Z</time></trkpt>
<trkpt lat="43.08411700" lon="0.28210000"><ele></ele><time>2014-4-21T16:50:36Z</time></trkpt>
<trkpt lat="43.08500000" lon="0.28240000"><ele></ele><time>2014-4-21T16:50:39Z</time></trkpt>
<trkpt lat="43.08526700" lon="0.28251700"><ele></ele><time>2014-4-21T16:50:42Z</time></trkpt>
</trkseg></trk></gpx>